Aviation Digital Data Service (ADDS)

Output produced by METARs form (1807 UTC 28 May 2015)
found at http://aviationweather.gov/adds/metars/
 
KBDL 281723Z 2818/2924 18010G18KT P6SM BKN050 
     FM282000 24009KT P6SM VCTS OVC050CB 
     FM282300 28007KT P6SM BKN050 
     FM290100 30005KT P6SM SCT250 
     FM291100 36004KT P6SM SKC 
     FM292200 18008KT P6SM FEW250